createdAt,value
2022-10-30T00:01:15.951Z,6.22
2022-10-30T00:03:43.493Z,6.18
2022-10-30T00:06:10.869Z,6.03
2022-10-30T00:08:38.423Z,6.13
2022-10-30T00:11:06.930Z,6.45
2022-10-30T00:13:34.670Z,7.40
2022-10-30T00:16:03.999Z,7.50
2022-10-30T00:18:31.345Z,6.45
2022-10-30T00:20:58.892Z,7.30
2022-10-30T00:23:26.276Z,6.88
2022-10-30T00:25:53.793Z,6.47
2022-10-30T00:28:21.104Z,7.07
2022-10-30T00:30:48.582Z,6.28
2022-10-30T00:33:15.799Z,5.43
2022-10-30T00:35:48.944Z,4.93
2022-10-30T00:38:16.479Z,5.25
2022-10-30T00:40:43.965Z,4.78
2022-10-30T00:43:30.006Z,5.40
2022-10-30T00:45:58.574Z,5.00
2022-10-30T00:48:26.720Z,5.03
2022-10-30T00:50:55.207Z,4.80
2022-10-30T00:53:22.977Z,5.00
2022-10-30T00:55:52.971Z,4.00
2022-10-30T00:58:22.394Z,4.68
2022-10-30T01:00:51.788Z,4.18
2022-10-30T01:03:20.180Z,3.97
2022-10-30T01:05:49.189Z,5.35
2022-10-30T01:08:16.733Z,4.40
2022-10-30T01:10:44.303Z,4.82
2022-10-30T01:13:12.023Z,4.35
2022-10-30T01:15:43.075Z,4.63
2022-10-30T01:18:22.573Z,4.30
2022-10-30T01:20:57.830Z,4.53
2022-10-30T01:23:40.633Z,4.88
2022-10-30T01:26:27.080Z,4.47
2022-10-30T01:29:06.703Z,3.92
2022-10-30T01:31:53.258Z,4.38
2022-10-30T01:34:26.705Z,4.10
2022-10-30T01:36:54.001Z,4.13
2022-10-30T01:39:23.503Z,3.75
2022-10-30T01:41:50.993Z,4.03
2022-10-30T01:44:21.769Z,3.78
2022-10-30T01:47:08.066Z,4.28
2022-10-30T01:49:38.608Z,4.40
2022-10-30T01:52:22.756Z,4.50
2022-10-30T01:54:56.029Z,4.72
2022-10-30T01:57:42.099Z,4.90
2022-10-30T02:00:11.893Z,4.55
2022-10-30T02:02:39.427Z,4.95
2022-10-30T02:05:08.395Z,4.60
2022-10-30T02:07:37.387Z,4.90
2022-10-30T02:10:05.368Z,3.53
2022-10-30T02:12:33.173Z,4.70
2022-10-30T02:15:01.916Z,4.20
2022-10-30T02:17:29.501Z,4.50
2022-10-30T02:19:56.973Z,4.32
2022-10-30T02:22:25.257Z,4.30
2022-10-30T02:24:52.670Z,4.60
2022-10-30T02:27:20.006Z,3.90
2022-10-30T02:29:47.543Z,4.38
2022-10-30T02:32:14.939Z,4.55
2022-10-30T02:34:43.169Z,4.32
2022-10-30T02:37:10.527Z,4.90
2022-10-30T02:39:37.832Z,4.53
2022-10-30T02:42:05.914Z,5.30
2022-10-30T02:44:33.307Z,5.22
2022-10-30T02:47:01.258Z,5.55
2022-10-30T02:49:28.861Z,5.22
2022-10-30T02:51:56.318Z,5.00
2022-10-30T02:54:23.797Z,5.32
2022-10-30T02:56:51.320Z,5.10
2022-10-30T02:59:18.735Z,4.60
2022-10-30T03:01:46.141Z,5.07
2022-10-30T03:04:13.657Z,4.78
2022-10-30T03:06:41.018Z,5.05
2022-10-30T03:09:08.538Z,4.70
2022-10-30T03:11:36.030Z,5.05
2022-10-30T03:14:03.433Z,5.82
2022-10-30T03:16:31.302Z,6.45
2022-10-30T03:18:58.886Z,6.07
2022-10-30T03:21:27.501Z,5.80
2022-10-30T03:23:55.547Z,4.82
2022-10-30T03:26:22.983Z,4.72
2022-10-30T03:28:50.307Z,4.40
2022-10-30T03:31:18.999Z,4.70
2022-10-30T03:33:46.788Z,4.32
2022-10-30T03:36:14.626Z,5.15
2022-10-30T03:38:42.283Z,4.95
2022-10-30T03:41:09.624Z,5.20
2022-10-30T03:43:37.039Z,4.95
2022-10-30T03:46:04.992Z,4.80
2022-10-30T03:48:32.322Z,5.43
2022-10-30T03:51:00.723Z,4.90
2022-10-30T03:53:28.925Z,5.72
2022-10-30T03:56:02.506Z,5.57
2022-10-30T03:58:30.627Z,5.70
2022-10-30T04:01:01.935Z,4.90
2022-10-30T04:03:29.617Z,4.65
2022-10-30T04:05:57.154Z,4.82
2022-10-30T04:08:24.895Z,5.28
2022-10-30T04:10:52.343Z,4.82
2022-10-30T04:13:22.532Z,4.18
2022-10-30T04:15:56.398Z,4.32
2022-10-30T04:18:25.809Z,4.68
2022-10-30T04:20:53.177Z,4.70
2022-10-30T04:23:21.517Z,4.95
2022-10-30T04:25:49.277Z,4.68
2022-10-30T04:28:17.274Z,4.50
2022-10-30T04:30:45.995Z,4.25
2022-10-30T04:33:13.708Z,4.78
2022-10-30T04:35:41.813Z,4.63
2022-10-30T04:38:10.727Z,4.20
2022-10-30T04:40:39.165Z,4.68
2022-10-30T04:43:07.549Z,4.88
2022-10-30T04:45:35.102Z,4.93
2022-10-30T04:48:20.655Z,4.28
2022-10-30T04:50:48.111Z,4.85
2022-10-30T04:53:19.015Z,4.45
2022-10-30T04:55:46.738Z,4.07
2022-10-30T04:58:14.501Z,3.92
2022-10-30T05:00:42.356Z,4.68
2022-10-30T05:03:10.257Z,4.82
2022-10-30T05:05:38.000Z,4.28
2022-10-30T05:08:05.788Z,4.38
2022-10-30T05:10:33.279Z,4.07
2022-10-30T05:13:00.760Z,4.30
2022-10-30T05:15:28.214Z,4.32
2022-10-30T05:17:55.905Z,4.50
2022-10-30T05:20:23.664Z,4.05
2022-10-30T05:22:57.909Z,4.45
2022-10-30T05:27:52.686Z,4.57
2022-10-30T05:30:20.038Z,5.13
2022-10-30T05:32:47.396Z,5.18
2022-10-30T05:35:14.921Z,4.43
2022-10-30T05:37:42.977Z,4.30
2022-10-30T05:40:10.611Z,4.45
2022-10-30T05:42:37.980Z,4.75
2022-10-30T05:45:05.635Z,4.85
2022-10-30T05:47:32.956Z,6.15
2022-10-30T05:50:00.518Z,5.15
2022-10-30T05:52:29.337Z,5.40
2022-10-30T05:54:56.991Z,5.68
2022-10-30T05:57:24.597Z,5.90
2022-10-30T05:59:52.160Z,5.10
2022-10-30T06:02:19.854Z,4.88
2022-10-30T06:04:47.587Z,5.15
2022-10-30T06:07:15.293Z,4.60
2022-10-30T06:09:42.789Z,4.70
2022-10-30T06:12:10.276Z,4.50
2022-10-30T06:14:37.705Z,4.72
2022-10-30T06:17:05.449Z,5.10
2022-10-30T06:19:34.921Z,6.38
2022-10-30T06:22:02.212Z,5.47
2022-10-30T06:24:29.705Z,5.65
2022-10-30T06:26:57.201Z,5.57
2022-10-30T06:29:24.556Z,4.95
2022-10-30T06:31:51.842Z,5.55
2022-10-30T06:34:19.144Z,4.53
2022-10-30T06:36:46.948Z,5.20
2022-10-30T06:39:15.810Z,5.13
2022-10-30T06:41:44.043Z,5.65
2022-10-30T06:44:11.735Z,5.85
2022-10-30T06:46:39.268Z,6.88
2022-10-30T06:49:06.751Z,6.50
2022-10-30T06:51:35.166Z,6.63
2022-10-30T06:54:02.884Z,7.00
2022-10-30T06:56:30.243Z,6.35
2022-10-30T06:58:57.491Z,6.50
2022-10-30T07:01:24.899Z,6.68
2022-10-30T07:03:52.422Z,7.45
2022-10-30T07:06:19.753Z,7.55
2022-10-30T07:08:47.933Z,7.07
2022-10-30T07:11:15.721Z,7.40
2022-10-30T07:13:43.033Z,6.88
2022-10-30T07:16:10.345Z,7.80
2022-10-30T07:18:37.663Z,6.53
2022-10-30T07:21:05.363Z,7.07
2022-10-30T07:23:32.776Z,7.32
2022-10-30T07:26:03.738Z,9.55
2022-10-30T07:28:32.067Z,11.70
2022-10-30T07:30:59.905Z,11.18
2022-10-30T07:33:27.538Z,11.23
2022-10-30T07:35:55.405Z,9.05
2022-10-30T07:38:23.299Z,8.30
2022-10-30T07:40:54.455Z,9.20
2022-10-30T07:43:22.089Z,7.82
2022-10-30T07:45:49.500Z,7.85
2022-10-30T07:48:16.987Z,7.05
2022-10-30T07:50:46.257Z,8.00
2022-10-30T07:53:13.727Z,7.35
2022-10-30T07:55:42.768Z,7.80
2022-10-30T07:58:10.102Z,7.13
2022-10-30T08:00:37.855Z,7.68
2022-10-30T08:03:05.462Z,7.57
2022-10-30T08:05:32.977Z,7.95
2022-10-30T08:08:00.811Z,7.20
2022-10-30T08:10:31.154Z,6.68
2022-10-30T08:12:58.708Z,7.82
2022-10-30T08:15:26.207Z,6.88
2022-10-30T08:17:53.901Z,7.80
2022-10-30T08:20:23.083Z,7.43
2022-10-30T08:22:52.061Z,7.75
2022-10-30T08:25:20.284Z,6.88
2022-10-30T08:27:55.779Z,7.55
2022-10-30T08:30:24.021Z,6.80
2022-10-30T08:32:52.015Z,7.80
2022-10-30T08:35:20.272Z,7.05
2022-10-30T08:37:48.139Z,6.57
2022-10-30T08:40:15.735Z,7.18
2022-10-30T08:42:43.099Z,6.68
2022-10-30T08:45:10.624Z,6.78
2022-10-30T08:47:37.913Z,7.07
2022-10-30T08:50:06.849Z,7.18
2022-10-30T08:52:34.195Z,7.13
2022-10-30T08:55:01.834Z,6.70
2022-10-30T08:57:29.571Z,7.25
2022-10-30T08:59:57.169Z,6.65
2022-10-30T09:02:24.632Z,7.57
2022-10-30T09:04:52.158Z,6.95
2022-10-30T09:07:20.899Z,6.90
2022-10-30T09:09:48.487Z,6.53
2022-10-30T09:12:17.903Z,6.43
2022-10-30T09:14:45.359Z,6.97
2022-10-30T09:17:13.446Z,5.82
2022-10-30T09:19:42.143Z,6.10
2022-10-30T09:22:09.554Z,6.50
2022-10-30T09:24:37.628Z,5.35
2022-10-30T09:27:05.498Z,6.20
2022-10-30T09:29:32.993Z,5.60
2022-10-30T09:32:01.009Z,5.68
2022-10-30T09:34:29.495Z,6.25
2022-10-30T09:36:58.538Z,6.38
2022-10-30T10:15:50.724Z,6.57
2022-10-30T10:18:26.408Z,6.60
2022-10-30T10:20:54.651Z,6.63
2022-10-30T10:23:33.016Z,5.88
2022-10-30T10:26:03.782Z,6.35
2022-10-30T10:28:49.847Z,6.15
2022-10-30T10:31:35.864Z,5.95
2022-10-30T10:34:21.863Z,6.07
2022-10-30T10:37:12.334Z,4.53
2022-10-30T10:40:05.850Z,6.25
2022-10-30T10:42:52.968Z,5.10
2022-10-30T10:45:35.621Z,5.43
2022-10-30T10:48:03.221Z,5.28
2022-10-30T10:50:47.737Z,5.43
2022-10-30T10:53:27.688Z,5.40
2022-10-30T10:55:58.067Z,5.97
2022-10-30T10:58:33.117Z,5.50
2022-10-30T11:01:00.525Z,5.50
2022-10-30T11:03:27.851Z,4.93
2022-10-30T11:05:59.971Z,4.82
2022-10-30T11:08:31.533Z,5.65
2022-10-30T11:10:59.918Z,6.13
2022-10-30T11:13:29.123Z,5.63
2022-10-30T11:16:00.563Z,5.57
2022-10-30T11:18:27.811Z,5.43
2022-10-30T11:21:08.439Z,5.30
2022-10-30T11:23:43.055Z,5.57
2022-10-30T11:26:30.239Z,5.18
2022-10-30T11:29:14.300Z,4.38
2022-10-30T11:31:42.796Z,5.30
2022-10-30T11:34:19.471Z,5.22
2022-10-30T11:36:48.060Z,4.45
2022-10-30T11:39:19.501Z,4.93
2022-10-30T11:41:54.776Z,4.97
2022-10-30T11:44:28.778Z,5.32
2022-10-30T11:46:56.593Z,4.95
2022-10-30T11:49:29.610Z,4.95
2022-10-30T11:51:56.847Z,4.88
2022-10-30T11:54:24.163Z,4.72
2022-10-30T11:56:51.953Z,5.28
2022-10-30T11:59:20.944Z,4.65
2022-10-30T12:02:02.303Z,4.75
2022-10-30T12:04:32.982Z,5.07
2022-10-30T12:07:15.504Z,4.68
2022-10-30T12:09:46.754Z,4.72
2022-10-30T12:12:20.961Z,4.55
2022-10-30T12:14:48.221Z,4.00
2022-10-30T12:17:16.384Z,4.47
2022-10-30T12:19:54.822Z,4.18
2022-10-30T12:22:30.532Z,4.18
2022-10-30T12:24:58.642Z,4.18
2022-10-30T12:27:26.544Z,4.63
2022-10-30T12:30:08.476Z,4.57
2022-10-30T12:32:48.615Z,4.63
2022-10-30T12:35:23.186Z,4.10
2022-10-30T12:40:19.773Z,4.30
2022-10-30T12:42:52.255Z,4.57
2022-10-30T12:45:25.630Z,4.35
2022-10-30T12:48:11.665Z,3.73
2022-10-30T12:51:05.868Z,5.10
2022-10-30T12:53:39.060Z,4.00
2022-10-30T12:56:10.014Z,4.80
2022-10-30T12:58:42.438Z,4.63
2022-10-30T13:01:17.658Z,4.47
2022-10-30T13:03:56.794Z,4.30
2022-10-30T13:06:28.416Z,4.22
2022-10-30T13:09:17.909Z,4.43
2022-10-30T13:11:50.102Z,4.07
2022-10-30T13:14:19.455Z,4.18
2022-10-30T13:16:46.808Z,4.53
2022-10-30T13:19:14.603Z,4.10
2022-10-30T13:21:58.854Z,4.20
2022-10-30T13:24:35.082Z,3.85
2022-10-30T13:27:15.417Z,4.45
2022-10-30T13:29:42.614Z,4.93
2022-10-30T13:32:28.775Z,4.70
2022-10-30T13:35:02.105Z,3.85
2022-10-30T13:37:48.097Z,4.65
2022-10-30T13:40:21.755Z,4.05
2022-10-30T13:42:57.774Z,4.93
2022-10-30T13:45:31.123Z,3.35
2022-10-30T13:48:17.263Z,4.18
2022-10-30T13:50:54.741Z,5.72
2022-10-30T13:53:25.064Z,4.93
2022-10-30T13:55:52.855Z,4.70
2022-10-30T13:58:23.018Z,4.22
2022-10-30T14:00:53.281Z,3.92
2022-10-30T14:03:20.582Z,4.20
2022-10-30T14:05:56.656Z,3.95
2022-10-30T14:08:47.378Z,3.65
2022-10-30T14:11:14.908Z,4.43
2022-10-30T14:13:58.900Z,4.82
2022-10-30T14:16:45.429Z,4.18
2022-10-30T14:19:16.633Z,3.83
2022-10-30T14:21:54.479Z,4.47
2022-10-30T14:24:43.971Z,4.50
2022-10-30T14:27:11.934Z,5.18
2022-10-30T14:29:47.588Z,4.88
2022-10-30T14:32:14.760Z,4.65
2022-10-30T14:34:42.649Z,4.57
2022-10-30T14:37:10.364Z,3.72
2022-10-30T14:39:41.844Z,3.83
2022-10-30T14:42:09.072Z,4.65
2022-10-30T14:44:55.100Z,4.75
2022-10-30T14:47:37.545Z,4.10
2022-10-30T14:50:04.785Z,4.57
2022-10-30T14:52:38.081Z,5.03
2022-10-30T14:55:28.197Z,4.15
2022-10-30T14:58:04.177Z,3.95
2022-10-30T15:00:37.213Z,3.80
2022-10-30T15:03:18.341Z,4.72
2022-10-30T15:06:05.875Z,4.43
2022-10-30T15:08:39.316Z,4.90
2022-10-30T15:11:11.798Z,4.20
2022-10-30T15:13:47.097Z,4.70
2022-10-30T15:16:15.462Z,5.05
2022-10-30T15:18:47.260Z,4.43
2022-10-30T15:21:18.907Z,4.40
2022-10-30T15:23:46.128Z,4.55
2022-10-30T15:26:23.812Z,4.95
2022-10-30T15:28:52.438Z,4.05
2022-10-30T15:31:24.303Z,4.65
2022-10-30T15:33:52.191Z,4.45
2022-10-30T15:36:20.348Z,4.45
2022-10-30T15:39:06.590Z,3.70
2022-10-30T15:41:38.913Z,5.10
2022-10-30T15:44:06.381Z,5.28
2022-10-30T15:46:34.288Z,5.22
2022-10-30T15:49:01.737Z,5.45
2022-10-30T15:51:29.408Z,4.78
2022-10-30T15:54:02.408Z,4.53
2022-10-30T15:56:32.994Z,4.80
2022-10-30T15:59:17.087Z,4.25
2022-10-30T16:01:45.205Z,4.57
2022-10-30T16:04:20.369Z,5.20
2022-10-30T16:06:50.710Z,4.85
2022-10-30T16:09:18.290Z,5.10
2022-10-30T16:11:46.568Z,5.35
2022-10-30T16:14:15.971Z,5.47
2022-10-30T16:16:45.562Z,4.35
2022-10-30T16:19:19.296Z,5.15
2022-10-30T16:21:49.630Z,4.78
2022-10-30T16:24:17.989Z,5.13
2022-10-30T16:26:45.809Z,5.15
2022-10-30T16:29:17.072Z,5.72
2022-10-30T16:31:49.675Z,7.25
2022-10-30T16:34:22.340Z,6.57
2022-10-30T16:36:49.983Z,6.53
2022-10-30T16:39:18.354Z,6.45
2022-10-30T16:41:45.799Z,6.03
2022-10-30T16:44:13.012Z,5.80
2022-10-30T16:46:51.322Z,6.82
2022-10-30T16:49:26.979Z,5.80
2022-10-30T16:51:57.507Z,5.85
2022-10-30T16:54:26.728Z,6.00
2022-10-30T16:56:56.091Z,5.63
2022-10-30T16:59:43.533Z,6.72
2022-10-30T17:02:17.078Z,10.48
2022-10-30T17:04:47.195Z,14.35
2022-10-30T17:07:22.020Z,9.85
2022-10-30T17:09:50.376Z,7.38
2022-10-30T17:12:20.695Z,7.13
2022-10-30T17:14:51.160Z,6.07
2022-10-30T17:17:41.199Z,6.93
2022-10-30T17:22:39.773Z,6.38
2022-10-30T17:25:18.213Z,6.95
2022-10-30T17:27:49.908Z,6.55
2022-10-30T17:30:29.324Z,6.70
2022-10-30T17:32:57.597Z,6.75
2022-10-30T17:35:25.282Z,6.97
2022-10-30T17:37:52.632Z,6.53
2022-10-30T17:40:20.443Z,6.28
2022-10-30T17:42:49.392Z,6.50
2022-10-30T17:45:17.412Z,8.52
2022-10-30T17:47:44.641Z,6.47
2022-10-30T17:50:12.577Z,6.47
2022-10-30T17:52:39.787Z,7.30
2022-10-30T17:55:18.381Z,5.57
2022-10-30T17:57:45.571Z,6.75
2022-10-30T18:00:13.019Z,6.38
2022-10-30T18:02:42.180Z,8.77
2022-10-30T18:05:15.206Z,7.10
2022-10-30T18:07:43.001Z,7.80
2022-10-30T18:10:10.683Z,8.30
2022-10-30T18:12:38.205Z,10.38
2022-10-30T18:15:25.715Z,8.93
2022-10-30T18:17:52.939Z,10.00
2022-10-30T18:20:20.322Z,10.13
2022-10-30T18:22:47.681Z,9.32
2022-10-30T18:25:25.686Z,9.07
2022-10-30T18:27:53.046Z,8.20
2022-10-30T18:30:21.675Z,7.82
2022-10-30T18:32:49.554Z,8.50
2022-10-30T18:35:20.256Z,7.78
2022-10-30T18:37:47.451Z,9.00
2022-10-30T18:40:15.558Z,9.57
2022-10-30T18:42:43.405Z,8.52
2022-10-30T18:45:16.813Z,10.85
2022-10-30T18:47:44.394Z,9.90
2022-10-30T18:50:12.334Z,9.63
2022-10-30T18:52:39.540Z,9.95
2022-10-30T18:55:18.023Z,9.50
2022-10-30T18:57:45.950Z,10.18
2022-10-30T19:00:14.564Z,10.23
2022-10-30T19:02:42.433Z,10.07
2022-10-30T19:05:21.540Z,10.45
2022-10-30T19:07:49.553Z,12.70
2022-10-30T19:10:17.559Z,12.60
2022-10-30T19:13:04.206Z,11.35
2022-10-30T19:15:37.257Z,10.13
2022-10-30T19:18:04.957Z,9.73
2022-10-30T19:20:58.475Z,9.90
2022-10-30T19:23:21.904Z,7.60
2022-10-30T19:25:49.745Z,7.70
2022-10-30T19:28:18.209Z,7.18
2022-10-30T19:30:50.290Z,6.22
2022-10-30T19:33:21.553Z,8.07
2022-10-30T19:35:56.313Z,6.82
2022-10-30T19:38:24.665Z,6.68
2022-10-30T19:40:52.290Z,5.93
2022-10-30T19:43:19.872Z,6.38
2022-10-30T19:45:51.295Z,7.05
2022-10-30T19:48:55.945Z,7.38
2022-10-30T19:51:11.794Z,12.60
2022-10-30T19:53:40.101Z,12.60
2022-10-30T19:56:09.697Z,13.85
2022-10-30T19:58:37.693Z,11.95
2022-10-30T20:01:05.126Z,12.63
2022-10-30T20:03:32.510Z,14.20
2022-10-30T20:05:59.888Z,14.48
2022-10-30T20:08:28.330Z,15.15
2022-10-30T20:10:56.885Z,13.68
2022-10-30T20:13:24.944Z,14.50
2022-10-30T20:15:53.420Z,14.13
2022-10-30T20:18:22.282Z,13.77
2022-10-30T20:20:50.866Z,13.20
2022-10-30T20:23:18.901Z,13.30
2022-10-30T20:25:46.988Z,12.90
2022-10-30T20:28:32.200Z,13.57
2022-10-30T20:30:59.613Z,12.63
2022-10-30T20:33:27.068Z,11.57
2022-10-30T20:35:57.869Z,10.93
2022-10-30T20:38:26.926Z,10.88
2022-10-30T20:40:55.227Z,11.30
2022-10-30T20:43:26.312Z,10.02
2022-10-30T20:45:53.638Z,9.95
2022-10-30T20:48:21.199Z,10.13
2022-10-30T20:50:50.797Z,8.77
2022-10-30T20:53:18.564Z,10.30
2022-10-30T20:55:46.580Z,9.40
2022-10-30T20:58:13.833Z,9.77
2022-10-30T21:00:41.117Z,9.68
2022-10-30T21:03:08.543Z,9.02
2022-10-30T21:05:45.101Z,8.27
2022-10-30T21:08:13.542Z,8.15
2022-10-30T21:10:41.204Z,8.50
2022-10-30T21:13:09.716Z,8.02
2022-10-30T21:15:41.601Z,7.47
2022-10-30T21:18:09.518Z,7.20
2022-10-30T21:20:37.635Z,6.90
2022-10-30T21:23:05.485Z,8.07
2022-10-30T21:25:32.970Z,6.97
2022-10-30T21:28:00.452Z,7.80
2022-10-30T21:30:29.871Z,8.40
2022-10-30T21:32:57.512Z,8.05
2022-10-30T21:35:25.006Z,8.43
2022-10-30T21:37:52.235Z,8.20
2022-10-30T21:40:19.432Z,10.05
2022-10-30T21:42:49.808Z,10.95
2022-10-30T21:45:17.055Z,9.98
2022-10-30T21:47:44.331Z,10.80
2022-10-30T21:50:12.724Z,10.75
2022-10-30T21:52:40.495Z,9.48
2022-10-30T21:55:07.951Z,12.38
2022-10-30T21:57:35.251Z,13.20
2022-10-30T22:00:05.580Z,12.93
2022-10-30T22:02:34.622Z,11.88
2022-10-30T22:05:01.969Z,11.48
2022-10-30T22:07:29.238Z,11.48
2022-10-30T22:09:56.514Z,11.43
2022-10-30T22:12:23.776Z,9.77
2022-10-30T22:14:51.033Z,9.70
2022-10-30T22:17:18.230Z,9.85
2022-10-30T22:19:45.515Z,9.05
2022-10-30T22:22:12.758Z,9.23
2022-10-30T22:24:39.997Z,10.27
2022-10-30T22:27:07.318Z,9.30
2022-10-30T22:29:34.545Z,9.00
